首页
METAR-TAF:

METAR-TAF

机场 :

彼尔姆, 俄罗斯

纬度: 58-00N, 经度: 056-15E, 海拔: 170米

当前天气观测

该预报发布于32分钟前的19:00 UTC
风速10节,风向西转西北
温度 0°C
湿度 86%
气压 999 hPa
能见度10公里或以上
阴天层高于3300英尺
小雪

METAR: USPP 261900Z 29005MPS 9999 -SN OVC033 M00/M02 Q0999 R21/290250 NOSIG RMK QFE738

时间: 00:32 (19:32 UTC)

预报

该预报发布于2小时和33分钟前的16:59 UTC
预报有效从26日的 18点(UTC)到 27日的 18点(UTC)
风速10节,风向西,有时为23节阵风
能见度10公里或以上
多云层高于2000英尺
成为
从 27日的 01点(UTC)到 27日的 02点(UTC)
风速10节,风向南转西南,有时为27节阵风
成为
从 27日的 06点(UTC)到 27日的 07点(UTC)
能見度: 6000
多云层高于1600英尺
小雪

TAF: USPP 261659Z 2618/2718 28005G12MPS 9999 BKN020 BECMG 2701/2702 20005G14MPS BECMG 2706/2707 6000 -SN BKN016

超过4000个机场的气象观测和天气预报(METAR&TAF报告)。

可查询的气象台以黄色和红色小点在地图上表示。

将鼠标移到小点上方,可查看气象台名称。

然后点击查看天气观测和预报。

如需切换地图:点击带黑十字的绿色按钮放大地图;点击带横线的绿色按钮缩小地图;或者点击绿色箭头查看邻近地区的地图。


METAR-TAF: